Time;durP1;ratioP1;P1;durP2;ratioP2;P2;SDS_P1;SDS_P2;PMS_P1;PMS_P2;Temp;Humidity;BMP_temperature;BMP_pressure;BME280_temperature;BME280_humidity;BME280_pressure;Samples;Min_cycle;Max_cycle;Signal;HPM_P1;HPM_P2
2022/02/14 00:00:26;;;;;;;6.82;5.13;;;5.90;43.80;;;;;;4944730;29;20215;-75
2022/02/14 00:02:53;;;;;;;7.75;4.90;;;5.90;44.20;;;;;;4940685;29;20211;-74
2022/02/14 00:05:21;;;;;;;6.35;4.93;;;5.80;44.60;;;;;;4935315;29;20661;-74
2022/02/14 00:07:48;;;;;;;4.45;3.85;;;5.80;44.80;;;;;;4935328;29;20215;-74
2022/02/14 00:10:15;;;;;;;7.25;5.28;;;5.80;44.20;;;;;;4935337;29;20636;-73
2022/02/14 00:12:42;;;;;;;7.90;4.53;;;5.70;44.60;;;;;;4934680;29;20655;-73
2022/02/14 00:15:10;;;;;;;7.47;4.55;;;5.70;44.70;;;;;;4934476;29;20235;-74
2022/02/14 00:17:39;;;;;;;8.10;5.07;;;5.50;45.50;;;;;;4936268;29;20207;-76
2022/02/14 00:20:10;;;;;;;6.25;4.43;;;5.50;46.10;;;;;;4949518;29;20262;-75
2022/02/14 00:22:38;;;;;;;6.05;4.03;;;5.30;46.10;;;;;;4942995;29;20206;-77
2022/02/14 00:25:06;;;;;;;5.05;3.90;;;5.20;46.10;;;;;;4947545;29;20276;-74
2022/02/14 00:27:33;;;;;;;6.57;4.30;;;5.20;46.50;;;;;;4936163;29;20603;-74
2022/02/14 00:30:00;;;;;;;8.85;4.43;;;5.20;46.80;;;;;;4935667;29;20287;-74
2022/02/14 00:32:27;;;;;;;6.50;4.55;;;5.20;47.50;;;;;;4934951;29;20214;-74
2022/02/14 00:34:56;;;;;;;7.32;4.13;;;5.10;47.90;;;;;;4935848;29;20318;-75
2022/02/14 00:37:23;;;;;;;6.88;4.60;;;5.20;48.10;;;;;;4934600;29;20208;-73
2022/02/14 00:39:50;;;;;;;6.30;3.92;;;5.10;48.60;;;;;;4934144;29;20313;-73
2022/02/14 00:42:17;;;;;;;7.00;5.45;;;5.10;48.60;;;;;;4933997;29;20266;-73
2022/02/14 00:44:44;;;;;;;7.18;5.75;;;5.10;48.50;;;;;;4934355;29;20231;-76
2022/02/14 00:47:11;;;;;;;6.28;5.40;;;5.10;48.70;;;;;;4934291;29;20614;-74
2022/02/14 00:49:38;;;;;;;7.90;5.10;;;5.10;49.00;;;;;;4934849;29;20344;-73
2022/02/14 00:52:07;;;;;;;8.80;5.43;;;5.10;49.00;;;;;;4934530;29;20280;-75
2022/02/14 00:54:34;;;;;;;9.20;5.80;;;5.10;49.10;;;;;;4936782;29;20259;-73
2022/02/14 00:57:01;;;;;;;7.38;4.90;;;5.10;49.30;;;;;;4937812;29;20238;-75
2022/02/14 00:59:28;;;;;;;8.82;4.95;;;5.10;49.10;;;;;;4937797;29;20651;-77
2022/02/14 01:01:55;;;;;;;5.70;4.82;;;5.20;49.40;;;;;;4937565;29;20302;-75
2022/02/14 01:04:22;;;;;;;7.15;4.90;;;5.20;49.40;;;;;;4939810;29;20337;-75
2022/02/14 01:06:49;;;;;;;7.05;4.78;;;5.20;49.50;;;;;;4945252;29;20298;-74
2022/02/14 01:09:17;;;;;;;6.85;4.70;;;5.20;50.00;;;;;;4942978;29;20553;-74
2022/02/14 01:11:44;;;;;;;6.45;4.90;;;5.20;50.70;;;;;;4940728;29;20215;-75
2022/02/14 01:14:11;;;;;;;7.78;5.55;;;5.20;50.10;;;;;;4938996;29;20306;-74
2022/02/14 01:16:38;;;;;;;7.55;5.00;;;5.20;50.10;;;;;;4949149;28;20206;-74
2022/02/14 01:19:05;;;;;;;6.40;4.40;;;5.20;50.50;;;;;;4937381;29;20221;-75
2022/02/14 01:21:32;;;;;;;7.20;5.00;;;5.30;50.20;;;;;;4936789;29;20236;-74
2022/02/14 01:23:59;;;;;;;5.07;4.00;;;5.30;50.40;;;;;;4936963;29;20251;-73
2022/02/14 01:26:27;;;;;;;5.93;4.45;;;5.30;50.50;;;;;;4937573;29;20608;-75
2022/02/14 01:28:54;;;;;;;5.53;4.30;;;5.30;50.70;;;;;;4937844;29;20246;-74
2022/02/14 01:31:21;;;;;;;5.63;4.13;;;5.30;50.90;;;;;;4936922;29;20578;-74
2022/02/14 01:33:48;;;;;;;6.68;5.32;;;5.30;50.90;;;;;;4936903;29;20214;-74
2022/02/14 01:36:15;;;;;;;6.47;4.35;;;5.30;50.90;;;;;;4936991;29;20690;-74
2022/02/14 01:38:42;;;;;;;8.35;4.90;;;5.20;51.00;;;;;;4937286;29;20246;-73
2022/02/14 01:41:08;;;;;;;7.13;4.32;;;5.10;51.40;;;;;;4934558;29;20222;-74
2022/02/14 01:43:37;;;;;;;7.10;4.65;;;5.00;51.60;;;;;;4934583;29;20241;-74
2022/02/14 01:46:03;;;;;;;6.18;4.95;;;5.00;52.30;;;;;;4934773;29;20238;-74
2022/02/14 01:48:30;;;;;;;7.07;4.57;;;4.90;52.30;;;;;;4935004;29;20239;-73
2022/02/14 01:50:57;;;;;;;14.02;4.65;;;4.90;52.60;;;;;;4937680;29;20570;-73
2022/02/14 01:53:24;;;;;;;8.15;4.97;;;4.80;52.90;;;;;;4939072;29;20215;-73
2022/02/14 01:55:52;;;;;;;5.95;4.40;;;4.80;53.20;;;;;;4939355;29;20239;-74
2022/02/14 01:58:20;;;;;;;8.05;4.10;;;4.70;54.40;;;;;;4939469;29;20230;-74
2022/02/14 02:00:48;;;;;;;5.22;4.43;;;4.60;55.00;;;;;;4940096;29;20241;-73
2022/02/14 02:03:16;;;;;;;6.35;4.30;;;4.60;55.00;;;;;;4939629;29;20576;-75
2022/02/14 02:05:45;;;;;;;6.15;4.72;;;4.60;55.00;;;;;;4940122;29;20231;-74
2022/02/14 02:08:12;;;;;;;5.70;4.63;;;4.60;55.00;;;;;;4939745;29;20254;-75
2022/02/14 02:10:39;;;;;;;6.85;4.25;;;4.60;55.00;;;;;;4940476;29;20218;-73
2022/02/14 02:13:06;;;;;;;5.55;4.00;;;4.60;55.00;;;;;;4957943;28;20266;-80
2022/02/14 02:15:35;;;;;;;5.03;4.20;;;4.60;55.00;;;;;;4942912;29;20235;-75
2022/02/14 02:18:05;;;;;;;7.72;4.43;;;4.50;54.90;;;;;;4945924;29;20208;-74
2022/02/14 02:20:32;;;;;;;7.57;4.75;;;4.50;54.90;;;;;;4943198;29;20211;-74
2022/02/14 02:22:59;;;;;;;11.98;5.15;;;4.50;54.90;;;;;;4946840;29;20306;-74
2022/02/14 02:25:28;;;;;;;6.55;4.20;;;4.40;54.80;;;;;;4938902;29;20311;-74
2022/02/14 02:27:55;;;;;;;6.80;4.50;;;4.30;54.70;;;;;;4936653;29;20621;-73
2022/02/14 02:30:23;;;;;;;6.97;5.03;;;4.30;54.70;;;;;;4936659;29;20210;-73
2022/02/14 02:32:50;;;;;;;7.03;5.03;;;4.20;54.60;;;;;;4936657;29;20270;-75
2022/02/14 02:35:17;;;;;;;8.95;5.32;;;4.10;55.80;;;;;;4936566;29;20286;-73
2022/02/14 02:37:44;;;;;;;5.75;4.50;;;4.20;55.80;;;;;;4936191;29;20651;-74
2022/02/14 02:40:11;;;;;;;8.15;5.28;;;4.10;55.90;;;;;;4939610;29;20203;-74
2022/02/14 02:42:40;;;;;;;9.20;5.05;;;4.00;56.50;;;;;;4940212;29;20254;-75
2022/02/14 02:45:07;;;;;;;8.93;5.10;;;4.00;56.60;;;;;;4941451;29;20236;-75
2022/02/14 02:47:34;;;;;;;8.77;5.68;;;4.00;57.10;;;;;;4941384;29;20596;-75
2022/02/14 02:50:01;;;;;;;6.43;4.95;;;4.00;57.40;;;;;;4942985;29;20213;-75
2022/02/14 02:52:28;;;;;;;10.30;4.63;;;3.90;57.80;;;;;;4953670;29;20282;-74
2022/02/14 02:54:56;;;;;;;10.43;5.38;;;4.00;58.20;;;;;;4956145;29;20265;-76
2022/02/14 02:57:23;;;;;;;6.57;4.95;;;4.00;58.30;;;;;;4955638;29;20237;-75
2022/02/14 02:59:52;;;;;;;5.75;4.72;;;3.90;57.90;;;;;;4947914;29;20211;-76
2022/02/14 03:02:19;;;;;;;6.78;4.97;;;3.90;59.00;;;;;;4938968;29;20307;-76
2022/02/14 03:04:47;;;;;;;8.32;4.93;;;3.90;59.00;;;;;;4940190;29;20230;-75
2022/02/14 03:07:14;;;;;;;5.95;4.28;;;3.70;59.00;;;;;;4939914;29;20334;-76
2022/02/14 03:09:41;;;;;;;6.28;4.82;;;3.60;60.00;;;;;;4946522;29;20214;-75
2022/02/14 03:12:08;;;;;;;6.93;4.93;;;3.60;61.20;;;;;;4938468;29;20207;-76
2022/02/14 03:14:38;;;;;;;6.88;4.68;;;3.60;61.60;;;;;;4936606;29;20261;-75
2022/02/14 03:17:08;;;;;;;6.80;5.25;;;3.50;62.20;;;;;;4939404;29;20244;-75
2022/02/14 03:19:35;;;;;;;7.15;4.78;;;3.60;63.10;;;;;;4944946;29;20212;-75
2022/02/14 03:22:03;;;;;;;5.15;4.45;;;3.60;63.20;;;;;;4941408;29;20621;-76
2022/02/14 03:24:30;;;;;;;6.25;4.57;;;3.60;63.20;;;;;;4940846;29;20269;-76
2022/02/14 03:26:56;;;;;;;5.72;4.78;;;3.70;63.20;;;;;;4940810;29;20237;-75
2022/02/14 03:29:23;;;;;;;8.10;5.05;;;3.70;63.20;;;;;;4938548;29;20217;-76
2022/02/14 03:31:50;;;;;;;6.50;4.70;;;3.70;63.20;;;;;;4938532;29;20310;-75
2022/02/14 03:34:18;;;;;;;6.60;4.80;;;3.70;63.20;;;;;;4938765;29;20298;-76
2022/02/14 03:36:45;;;;;;;6.30;4.47;;;3.70;63.20;;;;;;4938932;29;20571;-75
2022/02/14 03:39:12;;;;;;;8.52;4.93;;;3.60;63.20;;;;;;4937073;29;20238;-75
2022/02/14 03:41:39;;;;;;;7.20;4.78;;;3.60;63.20;;;;;;4936056;29;20219;-75
2022/02/14 03:44:06;;;;;;;7.80;5.60;;;3.50;63.00;;;;;;4936191;29;20234;-75
2022/02/14 03:46:33;;;;;;;9.23;5.72;;;3.50;63.10;;;;;;4936005;29;20237;-76
2022/02/14 03:49:00;;;;;;;7.18;5.15;;;3.40;62.90;;;;;;4935428;29;20221;-74
2022/02/14 03:51:28;;;;;;;10.20;6.20;;;3.30;63.30;;;;;;4935691;29;20222;-75
2022/02/14 03:53:55;;;;;;;9.15;5.93;;;3.30;63.60;;;;;;4936586;29;20313;-75
2022/02/14 03:56:22;;;;;;;7.90;6.10;;;3.10;63.40;;;;;;4937070;29;20219;-73
2022/02/14 03:58:48;;;;;;;7.20;6.03;;;3.10;63.90;;;;;;4938136;29;20258;-75
2022/02/14 04:01:15;;;;;;;7.85;5.53;;;3.00;64.10;;;;;;4937809;29;20242;-76
2022/02/14 04:03:42;;;;;;;7.55;4.97;;;3.00;64.10;;;;;;4938039;29;20238;-75
2022/02/14 04:06:09;;;;;;;9.57;6.10;;;2.90;64.20;;;;;;4952537;29;20230;-75
2022/02/14 04:08:37;;;;;;;6.85;5.70;;;2.80;64.90;;;;;;4945532;29;20233;-75
2022/02/14 04:11:04;;;;;;;6.93;5.65;;;2.80;65.10;;;;;;4935415;29;20710;-75
2022/02/14 04:13:31;;;;;;;6.53;5.03;;;2.80;65.20;;;;;;4935615;29;20269;-75
2022/02/14 04:15:58;;;;;;;6.03;4.97;;;2.80;65.50;;;;;;4935935;29;20390;-75
2022/02/14 04:18:25;;;;;;;6.07;5.32;;;2.80;65.70;;;;;;4935184;29;20218;-74
2022/02/14 04:20:52;;;;;;;9.13;5.35;;;2.80;66.00;;;;;;4934879;29;20619;-73
2022/02/14 04:23:19;;;;;;;6.07;4.47;;;2.80;66.70;;;;;;4935640;29;20305;-74
2022/02/14 04:25:47;;;;;;;7.22;4.65;;;2.80;66.80;;;;;;4939005;29;20238;-74
2022/02/14 04:28:14;;;;;;;7.93;5.13;;;2.70;67.10;;;;;;4940708;29;20353;-74
2022/02/14 04:30:41;;;;;;;10.15;5.03;;;2.70;67.60;;;;;;4939360;29;20302;-73
2022/02/14 04:33:08;;;;;;;7.75;5.20;;;2.70;67.70;;;;;;4938997;29;20238;-74
2022/02/14 04:35:35;;;;;;;8.27;5.43;;;2.80;67.90;;;;;;4937816;29;20250;-74
2022/02/14 04:38:03;;;;;;;6.50;5.28;;;2.80;67.60;;;;;;4937496;29;20213;-74
2022/02/14 04:40:31;;;;;;;7.82;5.20;;;2.70;68.10;;;;;;4934905;29;20690;-73
2022/02/14 04:43:00;;;;;;;6.43;4.90;;;2.70;68.10;;;;;;4934977;29;20206;-73
2022/02/14 04:45:28;;;;;;;8.90;6.07;;;2.70;68.70;;;;;;4935424;29;20234;-73
2022/02/14 04:47:55;;;;;;;8.85;5.18;;;2.70;68.90;;;;;;4935452;29;20222;-75
2022/02/14 04:50:23;;;;;;;6.80;5.00;;;2.70;68.80;;;;;;4935300;29;20298;-73
2022/02/14 04:52:50;;;;;;;6.78;4.55;;;2.70;69.20;;;;;;4935155;29;20305;-73
2022/02/14 04:55:17;;;;;;;9.48;6.15;;;2.70;69.00;;;;;;4949767;23;20248;-74
2022/02/14 04:57:44;;;;;;;10.23;6.28;;;2.70;68.50;;;;;;4935688;29;20309;-75
2022/02/14 05:00:15;;;;;;;7.00;5.28;;;2.70;68.40;;;;;;4937217;29;20211;-75
2022/02/14 05:02:42;;;;;;;9.13;4.97;;;2.70;68.30;;;;;;4949557;29;20210;-74
2022/02/14 05:05:10;;;;;;;8.43;5.85;;;2.70;68.40;;;;;;4941040;29;20226;-75
2022/02/14 05:07:37;;;;;;;7.95;5.15;;;2.80;69.00;;;;;;4935115;29;20293;-74
2022/02/14 05:10:05;;;;;;;6.25;4.82;;;2.80;68.80;;;;;;4934731;29;20233;-75
2022/02/14 05:12:32;;;;;;;6.28;4.47;;;2.70;68.40;;;;;;4935159;29;20302;-75
2022/02/14 05:14:59;;;;;;;9.57;5.75;;;2.70;69.10;;;;;;4935175;29;20227;-74
2022/02/14 05:17:27;;;;;;;7.40;5.03;;;2.70;69.00;;;;;;4935530;29;20301;-75
2022/02/14 05:19:54;;;;;;;6.30;4.47;;;2.70;70.00;;;;;;4935098;29;20742;-75
2022/02/14 05:22:21;;;;;;;7.30;5.40;;;2.80;69.90;;;;;;4934559;29;20270;-75
2022/02/14 05:24:48;;;;;;;6.55;4.93;;;2.70;69.70;;;;;;4936685;29;20320;-75
2022/02/14 05:27:15;;;;;;;6.15;4.88;;;2.70;69.70;;;;;;4939317;29;20237;-76
2022/02/14 05:29:43;;;;;;;6.35;4.72;;;2.80;69.50;;;;;;4939509;29;20210;-74
2022/02/14 05:32:10;;;;;;;10.23;5.03;;;2.80;69.20;;;;;;4939674;29;20274;-76
2022/02/14 05:34:38;;;;;;;10.52;6.32;;;2.70;68.80;;;;;;4942155;29;20314;-74
2022/02/14 05:37:05;;;;;;;6.35;4.25;;;2.70;69.20;;;;;;4941578;29;20238;-74
2022/02/14 05:39:32;;;;;;;8.70;5.32;;;2.80;68.90;;;;;;4939324;29;20306;-76
2022/02/14 05:41:59;;;;;;;7.93;4.80;;;2.70;68.80;;;;;;4939702;29;20207;-76
2022/02/14 05:44:26;;;;;;;7.32;5.65;;;2.80;68.80;;;;;;4939262;29;20655;-75
2022/02/14 05:46:53;;;;;;;7.63;5.47;;;2.80;68.40;;;;;;4939338;29;20210;-77
2022/02/14 05:49:20;;;;;;;6.43;4.70;;;2.80;68.00;;;;;;4938842;29;20210;-75
2022/02/14 05:51:48;;;;;;;6.57;4.40;;;2.70;67.90;;;;;;4939264;29;20210;-78
2022/02/14 05:54:15;;;;;;;10.18;6.35;;;2.70;68.10;;;;;;4939344;29;20252;-76
2022/02/14 05:56:42;;;;;;;8.52;5.90;;;2.80;68.30;;;;;;4940309;29;20244;-74
2022/02/14 05:59:09;;;;;;;10.23;5.95;;;2.80;67.60;;;;;;4940658;29;20319;-76
2022/02/14 06:01:35;;;;;;;10.90;6.70;;;2.80;67.60;;;;;;4941090;29;20697;-76
2022/02/14 06:04:03;;;;;;;10.02;6.70;;;2.80;67.30;;;;;;4954195;29;20307;-75
2022/02/14 06:06:30;;;;;;;8.50;5.57;;;2.70;67.30;;;;;;4943431;29;20222;-77
2022/02/14 06:08:59;;;;;;;8.05;5.90;;;2.60;67.70;;;;;;4939743;29;20231;-74
2022/02/14 06:11:25;;;;;;;11.85;6.55;;;2.60;67.90;;;;;;4937087;29;20590;-74
2022/02/14 06:13:52;;;;;;;9.88;6.10;;;2.50;68.80;;;;;;4937763;29;20305;-74
2022/02/14 06:16:19;;;;;;;13.88;5.78;;;2.50;69.80;;;;;;4936313;29;20227;-73
2022/02/14 06:18:46;;;;;;;8.05;5.35;;;2.40;70.20;;;;;;4935984;29;20218;-75
2022/02/14 06:21:13;;;;;;;7.90;6.07;;;2.40;70.80;;;;;;4937476;29;20210;-75
2022/02/14 06:23:42;;;;;;;12.77;6.15;;;2.40;70.80;;;;;;4937554;29;20218;-74
2022/02/14 06:26:10;;;;;;;8.50;5.90;;;2.50;70.90;;;;;;4939591;29;20242;-74
2022/02/14 06:28:40;;;;;;;8.45;5.82;;;2.50;70.90;;;;;;4939367;29;20265;-75
2022/02/14 06:31:08;;;;;;;9.43;5.97;;;2.60;71.00;;;;;;4935359;29;20565;-75
2022/02/14 06:33:36;;;;;;;10.55;6.43;;;2.70;71.70;;;;;;4943878;29;20207;-74
2022/02/14 06:36:03;;;;;;;12.48;5.43;;;2.80;70.30;;;;;;4937891;29;20231;-76
2022/02/14 06:38:30;;;;;;;8.30;5.22;;;2.80;69.60;;;;;;4938357;29;20230;-75
2022/02/14 06:40:57;;;;;;;9.00;5.45;;;2.90;68.70;;;;;;4938727;29;20583;-75
2022/02/14 06:43:25;;;;;;;8.18;5.40;;;2.90;68.20;;;;;;4938998;29;20209;-75
2022/02/14 06:45:52;;;;;;;14.63;6.60;;;2.80;67.90;;;;;;4939716;29;20317;-76
2022/02/14 06:48:19;;;;;;;6.45;5.50;;;2.90;67.70;;;;;;4941548;29;20312;-75
2022/02/14 06:50:46;;;;;;;6.03;4.85;;;2.90;67.90;;;;;;4942397;29;20211;-75
2022/02/14 06:53:13;;;;;;;9.13;5.70;;;3.00;68.00;;;;;;4941717;29;20244;-75
2022/02/14 06:55:40;;;;;;;11.75;6.22;;;3.20;68.20;;;;;;4940374;29;20243;-75
2022/02/14 06:58:07;;;;;;;10.57;5.72;;;3.40;67.70;;;;;;4940976;29;20253;-77
2022/02/14 07:00:35;;;;;;;10.20;5.60;;;3.50;66.50;;;;;;4940177;29;20207;-75
2022/02/14 07:03:02;;;;;;;11.00;5.82;;;3.70;65.70;;;;;;4941079;29;20209;-73
2022/02/14 07:05:29;;;;;;;9.50;6.28;;;3.90;64.20;;;;;;4943725;29;20235;-76
2022/02/14 07:07:56;;;;;;;7.97;4.90;;;4.10;63.50;;;;;;4941449;29;20254;-75
2022/02/14 07:10:22;;;;;;;9.45;5.63;;;4.30;63.40;;;;;;4941348;29;20217;-75
2022/02/14 07:12:49;;;;;;;7.88;4.45;;;4.40;61.30;;;;;;4941925;29;20230;-76
2022/02/14 07:15:18;;;;;;;7.03;4.93;;;4.50;60.70;;;;;;4937406;29;20226;-74
2022/02/14 07:17:48;;;;;;;7.95;5.00;;;4.60;59.60;;;;;;4941135;29;20199;-74
2022/02/14 07:20:15;;;;;;;6.18;4.60;;;4.70;59.30;;;;;;4948140;29;20202;-74
2022/02/14 07:22:42;;;;;;;8.65;4.88;;;4.80;59.50;;;;;;4958035;28;20208;-73
2022/02/14 07:25:09;;;;;;;7.32;4.65;;;4.80;59.10;;;;;;4957934;29;20240;-74
2022/02/14 07:27:37;;;;;;;6.68;4.95;;;4.90;58.80;;;;;;4959702;29;20250;-75
2022/02/14 07:30:06;;;;;;;7.60;5.10;;;5.00;58.40;;;;;;4948232;29;20207;-73
2022/02/14 07:32:33;;;;;;;5.75;5.00;;;5.10;58.50;;;;;;4943151;29;20307;-75
2022/02/14 07:35:02;;;;;;;7.15;5.03;;;5.30;58.10;;;;;;4941420;29;20258;-76
2022/02/14 07:37:29;;;;;;;8.32;5.57;;;5.50;57.90;;;;;;4944917;29;20297;-75
2022/02/14 07:39:56;;;;;;;7.30;5.30;;;5.70;55.90;;;;;;4950760;29;20212;-75
2022/02/14 07:42:23;;;;;;;5.95;5.03;;;5.80;56.00;;;;;;4939790;29;20211;-76
2022/02/14 07:44:50;;;;;;;7.70;5.88;;;6.00;56.20;;;;;;4936213;29;20238;-75
2022/02/14 07:47:17;;;;;;;7.70;5.53;;;6.00;55.60;;;;;;4937495;29;20310;-75
2022/02/14 07:49:44;;;;;;;7.93;5.82;;;6.10;56.20;;;;;;4937770;29;20228;-74
2022/02/14 07:52:13;;;;;;;8.65;5.60;;;6.20;56.40;;;;;;4938752;29;20219;-76
2022/02/14 07:54:40;;;;;;;11.85;5.40;;;6.30;56.50;;;;;;4937734;29;20319;-73
2022/02/14 07:57:07;;;;;;;10.15;5.60;;;6.30;56.50;;;;;;4937460;29;20291;-74
2022/02/14 07:59:34;;;;;;;11.20;5.80;;;6.50;56.60;;;;;;4937543;29;20468;-74
2022/02/14 08:02:04;;;;;;;11.73;6.45;;;6.50;55.70;;;;;;4936186;29;20222;-77
2022/02/14 08:04:31;;;;;;;15.32;6.50;;;6.50;55.40;;;;;;4937834;29;20232;-77
2022/02/14 08:06:58;;;;;;;9.93;6.40;;;6.30;55.10;;;;;;4938785;29;20286;-77
2022/02/14 08:09:26;;;;;;;12.98;6.35;;;6.20;56.40;;;;;;4939213;29;20240;-77
2022/02/14 08:11:53;;;;;;;7.30;6.00;;;6.20;56.40;;;;;;4940441;29;20208;-77
2022/02/14 08:14:20;;;;;;;8.45;5.75;;;6.20;56.40;;;;;;4939290;29;20238;-77
2022/02/14 08:16:46;;;;;;;10.15;6.07;;;6.30;56.50;;;;;;4950467;29;20258;-74
2022/02/14 08:19:13;;;;;;;9.80;6.25;;;6.30;56.50;;;;;;4956616;29;20268;-76
2022/02/14 08:21:40;;;;;;;9.57;6.05;;;6.40;57.10;;;;;;4954637;28;20219;-76
2022/02/14 08:24:07;;;;;;;9.13;5.53;;;6.50;57.20;;;;;;4941195;29;20308;-79
2022/02/14 08:26:38;;;;;;;9.80;5.72;;;6.70;56.80;;;;;;4939226;29;20307;-77
2022/02/14 08:29:05;;;;;;;9.77;7.03;;;6.90;57.00;;;;;;4940807;29;20234;-76
2022/02/14 08:31:32;;;;;;;10.57;6.70;;;7.00;57.10;;;;;;4955577;28;20217;-74
2022/02/14 08:33:59;;;;;;;8.52;6.20;;;7.00;56.30;;;;;;4958505;28;20197;-74
2022/02/14 08:36:26;;;;;;;9.73;6.03;;;7.10;55.90;;;;;;4955048;28;20212;-79
2022/02/14 08:38:53;;;;;;;9.43;6.18;;;7.10;55.20;;;;;;4947596;29;20244;-77
2022/02/14 08:41:20;;;;;;;8.52;6.43;;;7.10;54.60;;;;;;4938129;29;20216;-76
2022/02/14 08:43:49;;;;;;;9.13;6.13;;;6.70;54.20;;;;;;4938807;29;20212;-75
2022/02/14 08:46:17;;;;;;;8.27;6.03;;;6.70;55.40;;;;;;4942163;29;20240;-77
2022/02/14 08:48:44;;;;;;;7.88;5.40;;;6.70;56.40;;;;;;4943239;29;20251;-77
2022/02/14 08:51:11;;;;;;;7.15;5.50;;;6.70;56.80;;;;;;4944005;29;20671;-76
2022/02/14 08:53:39;;;;;;;9.23;7.68;;;6.70;56.80;;;;;;4942816;29;20212;-76
2022/02/14 08:56:07;;;;;;;11.07;7.30;;;6.80;56.90;;;;;;4942939;29;20304;-76
2022/02/14 08:58:34;;;;;;;16.00;7.07;;;6.90;57.00;;;;;;4942261;29;20258;-77
2022/02/14 09:01:04;;;;;;;9.35;6.53;;;6.90;57.70;;;;;;4946959;29;20212;-77
2022/02/14 09:03:32;;;;;;;8.50;7.05;;;7.00;58.30;;;;;;4945712;29;20372;-77
2022/02/14 09:05:59;;;;;;;12.65;7.63;;;6.90;58.20;;;;;;4944691;29;20226;-77
2022/02/14 09:08:26;;;;;;;9.80;7.43;;;7.00;58.50;;;;;;4946487;29;20252;-77
2022/02/14 09:10:55;;;;;;;8.43;6.25;;;7.00;60.00;;;;;;4948383;29;20216;-78
2022/02/14 09:13:23;;;;;;;9.68;7.00;;;7.10;60.50;;;;;;4947562;29;20224;-77
2022/02/14 09:15:50;;;;;;;10.15;6.32;;;7.00;61.20;;;;;;4948150;29;20252;-76
2022/02/14 09:18:18;;;;;;;9.90;7.25;;;7.20;62.60;;;;;;4950171;29;20292;-76
2022/02/14 09:20:45;;;;;;;10.63;7.32;;;7.30;62.30;;;;;;4945934;29;20235;-76
2022/02/14 09:23:13;;;;;;;11.90;7.30;;;7.10;63.20;;;;;;4949352;29;20247;-76
2022/02/14 09:25:40;;;;;;;9.35;7.35;;;7.30;63.70;;;;;;4950737;29;20308;-77
2022/02/14 09:28:07;;;;;;;10.60;8.38;;;7.60;63.50;;;;;;4954592;29;20195;-76
2022/02/14 09:30:34;;;;;;;9.35;7.88;;;7.70;61.90;;;;;;4956994;29;20207;-76
2022/02/14 09:33:04;;;;;;;9.05;6.97;;;7.90;61.80;;;;;;4954510;29;20213;-76
2022/02/14 09:35:32;;;;;;;13.25;7.00;;;8.10;61.40;;;;;;4955934;29;20227;-74
2022/02/14 09:38:01;;;;;;;12.32;7.75;;;8.40;57.80;;;;;;4953647;29;20224;-76
2022/02/14 09:40:29;;;;;;;8.65;6.20;;;8.60;55.50;;;;;;4950724;29;20276;-77
2022/02/14 09:42:58;;;;;;;6.65;5.25;;;8.80;53.90;;;;;;4947310;29;20233;-77
2022/02/14 09:45:27;;;;;;;10.15;6.43;;;9.00;52.60;;;;;;4949143;29;20477;-78
2022/02/14 09:47:56;;;;;;;7.93;6.03;;;9.30;51.20;;;;;;4950494;29;20284;-76
2022/02/14 09:50:24;;;;;;;10.40;6.53;;;9.50;49.80;;;;;;4956770;29;20250;-76
2022/02/14 09:52:53;;;;;;;9.13;7.15;;;9.70;49.60;;;;;;4941706;29;20214;-77
2022/02/14 09:55:22;;;;;;;8.25;5.35;;;9.80;50.10;;;;;;4941926;29;20291;-77
2022/02/14 09:57:49;;;;;;;9.52;5.47;;;10.00;48.00;;;;;;4943516;29;20225;-78
2022/02/14 10:00:17;;;;;;;7.63;6.38;;;10.30;47.10;;;;;;4945315;29;20306;-77
2022/02/14 10:02:45;;;;;;;7.35;5.57;;;10.30;46.10;;;;;;4943839;29;20239;-77
2022/02/14 10:05:15;;;;;;;8.82;6.18;;;10.60;46.70;;;;;;4944859;29;20339;-77
2022/02/14 10:07:44;;;;;;;8.07;6.05;;;10.80;45.20;;;;;;4946577;29;20232;-77
2022/02/14 10:10:16;;;;;;;11.15;6.70;;;10.90;45.10;;;;;;4948915;29;20227;-78
2022/02/14 10:12:45;;;;;;;7.13;5.82;;;11.10;45.40;;;;;;4955210;29;20222;-78
2022/02/14 10:15:12;;;;;;;6.35;4.55;;;11.20;44.90;;;;;;4955211;29;20273;-76
2022/02/14 10:17:41;;;;;;;7.03;4.78;;;11.30;44.80;;;;;;4945426;29;20210;-77
2022/02/14 10:20:10;;;;;;;9.43;5.25;;;11.40;44.70;;;;;;4942775;29;20214;-77
2022/02/14 10:22:54;;;;;;;7.65;5.45;;;11.40;45.10;;;;;;4942278;29;20671;-78
2022/02/14 10:25:33;;;;;;;6.97;4.45;;;11.50;45.40;;;;;;4942343;29;20581;-77
2022/02/14 10:28:17;;;;;;;11.38;4.80;;;11.70;44.70;;;;;;4941535;29;20281;-79
2022/02/14 10:31:03;;;;;;;8.60;4.70;;;11.80;44.60;;;;;;4944701;29;20242;-77
2022/02/14 10:33:50;;;;;;;7.13;4.82;;;11.90;45.00;;;;;;4944399;29;20277;-77
2022/02/14 10:36:25;;;;;;;8.15;4.65;;;12.10;44.70;;;;;;4946390;29;20285;-77
2022/02/14 10:38:53;;;;;;;4.90;3.08;;;12.30;44.60;;;;;;4945457;29;20337;-80
2022/02/14 10:41:21;;;;;;;4.93;3.30;;;12.50;44.70;;;;;;4948286;29;20225;-78
2022/02/14 10:43:48;;;;;;;5.60;2.80;;;12.70;44.80;;;;;;4950673;29;20218;-77
2022/02/14 10:46:20;;;;;;;9.93;2.53;;;12.80;44.80;;;;;;4956747;29;20330;-76
2022/02/14 10:48:47;;;;;;;4.15;2.40;;;12.90;44.70;;;;;;4958158;28;20226;-77
2022/02/14 10:51:18;;;;;;;4.00;2.05;;;13.00;44.50;;;;;;4949495;29;20237;-77
2022/02/14 10:53:48;;;;;;;2.63;1.77;;;13.10;44.70;;;;;;4943053;29;20266;-79
2022/02/14 10:56:18;;;;;;;2.70;1.93;;;13.20;44.20;;;;;;4942932;29;20241;-77
2022/02/14 10:58:47;;;;;;;4.55;2.00;;;13.30;42.60;;;;;;4944931;29;20437;-77
2022/02/14 11:01:15;;;;;;;3.05;1.75;;;13.30;42.60;;;;;;4952166;29;20223;-78
2022/02/14 11:03:43;;;;;;;2.28;1.25;;;13.40;42.70;;;;;;4950176;29;20221;-78
2022/02/14 11:06:11;;;;;;;2.88;1.60;;;13.40;42.70;;;;;;4953567;29;20230;-78
2022/02/14 11:08:39;;;;;;;2.60;1.50;;;13.50;42.80;;;;;;4950131;29;20211;-77
2022/02/14 11:11:09;;;;;;;4.90;2.23;;;13.60;42.90;;;;;;4947301;29;20458;-78
2022/02/14 11:13:38;;;;;;;2.70;1.40;;;13.60;42.80;;;;;;4956779;28;20474;-76
2022/02/14 11:16:09;;;;;;;4.83;1.50;;;13.60;42.30;;;;;;4959269;28;20465;-77
2022/02/14 11:18:40;;;;;;;2.57;1.67;;;13.70;41.50;;;;;;4958924;28;20433;-77
2022/02/14 11:21:08;;;;;;;1.43;1.10;;;13.70;41.30;;;;;;4958117;29;20517;-79
2022/02/14 11:23:41;;;;;;;3.53;2.08;;;13.80;41.10;;;;;;4948401;29;20475;-79
2022/02/14 11:26:16;;;;;;;3.87;2.43;;;13.90;41.30;;;;;;4942584;29;20575;-79
2022/02/14 11:28:49;;;;;;;4.27;1.60;;;13.90;40.60;;;;;;4942961;29;20907;-76
2022/02/14 11:31:18;;;;;;;5.13;1.17;;;14.00;41.60;;;;;;4941682;29;20773;-78
2022/02/14 11:33:53;;;;;;;1.53;1.13;;;14.00;40.20;;;;;;4941810;29;20485;-78
2022/02/14 11:36:21;;;;;;;1.70;1.30;;;14.10;40.70;;;;;;4946225;29;20482;-77
2022/02/14 11:38:50;;;;;;;1.70;1.10;;;14.20;40.40;;;;;;4943557;29;20417;-77
2022/02/14 11:41:32;;;;;;;2.17;1.60;;;14.20;40.10;;;;;;4951023;29;20462;-78
2022/02/14 11:44:20;;;;;;;3.17;1.40;;;14.20;40.00;;;;;;4946592;29;20544;-80
2022/02/14 11:47:08;;;;;;;2.10;1.43;;;14.20;39.80;;;;;;4943049;29;20628;-78
2022/02/14 11:49:37;;;;;;;4.95;1.30;;;14.10;40.10;;;;;;4945380;29;20574;-79
2022/02/14 11:52:06;;;;;;;1.90;1.37;;;14.20;40.40;;;;;;4947222;29;20206;-78
2022/02/14 11:54:35;;;;;;;3.40;1.50;;;14.30;40.10;;;;;;4950001;29;20510;-76
2022/02/14 11:57:31;;;;;;;7.30;1.87;;;14.30;39.80;;;;;;4952753;29;20464;-78
2022/02/14 12:00:23;;;;;;;1.40;1.30;;;14.10;40.00;;;;;;4969625;23;20530;-78
2022/02/14 12:03:01;;;;;;;2.30;1.67;;;14.10;40.40;;;;;;4949525;29;20445;-78
2022/02/14 12:05:45;;;;;;;5.65;1.70;;;14.00;40.50;;;;;;4944993;29;20425;-78
2022/02/14 12:08:13;;;;;;;2.07;1.87;;;14.00;40.70;;;;;;4944568;29;20659;-77
2022/02/14 12:10:51;;;;;;;2.27;1.50;;;14.00;40.30;;;;;;4936128;29;20533;-78
2022/02/14 12:13:21;;;;;;;4.40;1.67;;;14.20;40.40;;;;;;4944254;29;20563;-79
2022/02/14 12:21:24;;;;;;;1.90;1.33;;;14.00;40.80;;;;;;4941044;29;20438;-79
2022/02/14 12:23:55;;;;;;;2.43;1.73;;;13.90;40.70;;;;;;4940346;29;20584;-77
2022/02/14 12:26:26;;;;;;;3.30;1.70;;;13.70;40.80;;;;;;4939241;29;20466;-79
2022/02/14 12:31:45;;;;;;;1.70;1.60;;;13.90;41.10;;;;;;4950648;29;20492;-81
2022/02/14 12:34:22;;;;;;;2.07;1.40;;;14.00;40.70;;;;;;4941957;29;20474;-79
2022/02/14 12:36:54;;;;;;;3.07;1.57;;;14.10;40.70;;;;;;4945210;29;20429;-80
2022/02/14 12:39:28;;;;;;;2.67;1.33;;;14.20;39.80;;;;;;4955447;28;20545;-80
2022/02/14 12:41:57;;;;;;;1.80;1.40;;;14.20;40.10;;;;;;4949311;29;20540;-79
2022/02/14 12:44:29;;;;;;;3.57;1.73;;;14.20;40.00;;;;;;4956420;28;20454;-81
2022/02/14 12:46:57;;;;;;;2.03;1.57;;;14.20;39.70;;;;;;4957131;28;20774;-78
2022/02/14 12:49:25;;;;;;;2.17;1.53;;;14.30;40.20;;;;;;4956594;28;20483;-78
2022/02/14 12:51:52;;;;;;;2.00;1.57;;;14.40;39.70;;;;;;4950424;28;20473;-80
2022/02/14 12:54:19;;;;;;;8.33;1.77;;;14.50;39.30;;;;;;4944387;29;20528;-80
2022/02/14 12:56:48;;;;;;;1.70;1.47;;;14.90;38.90;;;;;;4951549;29;20452;-82
2022/02/14 12:59:14;;;;;;;1.80;1.40;;;15.10;38.50;;;;;;4945396;29;20516;-79
2022/02/14 13:01:43;;;;;;;1.50;1.30;;;15.10;38.20;;;;;;4941330;29;20538;-81
2022/02/14 13:04:11;;;;;;;4.23;1.70;;;15.10;38.10;;;;;;4944988;29;20800;-81
2022/02/14 13:06:43;;;;;;;2.23;1.20;;;15.00;38.00;;;;;;4943707;29;20457;-80